Time;durP1;ratioP1;P1;durP2;ratioP2;P2;SDS_P1;SDS_P2;PMS_P1;PMS_P2;Temp;Humidity;BMP_temperature;BMP_pressure;BME280_temperature;BME280_humidity;BME280_pressure;Samples;Min_cycle;Max_cycle;Signal;HPM_P1;HPM_P2
2021/05/14 00:00:32;;;;;;;12.00;6.18;;;15.20;95.10;;;;;;4952579;28;20413;-76
2021/05/14 00:02:58;;;;;;;11.35;6.10;;;15.10;95.20;;;;;;4952634;28;20027;-77
2021/05/14 00:05:23;;;;;;;9.18;5.53;;;15.20;95.20;;;;;;4954009;29;20038;-75
2021/05/14 00:07:49;;;;;;;9.18;6.15;;;15.30;95.10;;;;;;4952554;28;20031;-75
2021/05/14 00:10:16;;;;;;;10.77;5.88;;;15.30;95.20;;;;;;4952374;28;20050;-75
2021/05/14 00:12:43;;;;;;;10.63;6.35;;;15.40;95.20;;;;;;4967740;28;20039;-76
2021/05/14 00:15:09;;;;;;;10.20;5.78;;;15.20;95.30;;;;;;4967199;28;20039;-75
2021/05/14 00:17:35;;;;;;;11.73;6.25;;;15.00;95.50;;;;;;4953245;28;20028;-75
2021/05/14 00:20:03;;;;;;;12.85;6.00;;;15.00;95.60;;;;;;4934957;28;20106;-75
2021/05/14 00:22:28;;;;;;;12.50;6.05;;;15.00;95.70;;;;;;4945832;28;20051;-76
2021/05/14 00:24:54;;;;;;;7.97;5.57;;;15.10;95.70;;;;;;4951180;28;20050;-75
2021/05/14 00:27:20;;;;;;;9.70;5.68;;;15.10;95.60;;;;;;4952072;28;20058;-75
2021/05/14 00:29:45;;;;;;;11.15;5.40;;;15.10;95.60;;;;;;4953687;29;20051;-75
2021/05/14 00:32:11;;;;;;;10.73;5.68;;;15.10;95.70;;;;;;4952434;28;20035;-75
2021/05/14 00:34:37;;;;;;;10.00;5.05;;;15.10;95.50;;;;;;4950829;28;20043;-75
2021/05/14 00:37:02;;;;;;;12.32;5.20;;;15.10;95.50;;;;;;4952266;28;20134;-76
2021/05/14 00:39:28;;;;;;;11.05;5.63;;;15.10;95.60;;;;;;4950616;28;20035;-75
2021/05/14 00:41:53;;;;;;;11.25;5.43;;;15.10;95.70;;;;;;4952272;28;20085;-75
2021/05/14 00:44:36;;;;;;;11.10;5.47;;;15.10;95.70;;;;;;4953405;29;20031;-75
2021/05/14 00:47:08;;;;;;;9.75;5.40;;;15.00;95.70;;;;;;4951861;28;20059;-75
2021/05/14 00:49:39;;;;;;;8.63;4.75;;;15.00;95.80;;;;;;4951775;28;20043;-75
2021/05/14 00:52:05;;;;;;;14.07;5.82;;;15.00;95.80;;;;;;4966638;28;20428;-75
2021/05/14 00:54:31;;;;;;;8.98;5.03;;;15.00;96.10;;;;;;4950459;28;20058;-75
2021/05/14 00:56:58;;;;;;;11.10;5.20;;;14.70;96.20;;;;;;4950722;28;20031;-75
2021/05/14 00:59:25;;;;;;;11.48;5.40;;;14.40;96.70;;;;;;4952008;29;20015;-76
2021/05/14 01:01:50;;;;;;;9.85;5.78;;;14.50;96.80;;;;;;4951453;28;20125;-75
2021/05/14 01:04:17;;;;;;;7.55;4.80;;;14.60;96.70;;;;;;4951701;28;20095;-76
2021/05/14 01:06:42;;;;;;;11.95;4.95;;;14.70;96.50;;;;;;4951360;28;20039;-76
2021/05/14 01:09:08;;;;;;;12.18;5.63;;;14.70;96.50;;;;;;4951260;28;20038;-74
2021/05/14 01:11:34;;;;;;;8.35;5.57;;;14.50;96.70;;;;;;4952880;28;20031;-75
2021/05/14 01:14:00;;;;;;;11.57;5.72;;;14.40;96.90;;;;;;4951401;28;20054;-76
2021/05/14 01:16:26;;;;;;;7.60;5.18;;;14.40;97.00;;;;;;4951889;28;20050;-76
2021/05/14 01:18:53;;;;;;;9.65;5.95;;;14.40;97.10;;;;;;4951260;28;20465;-76
2021/05/14 01:21:19;;;;;;;9.88;5.45;;;14.40;97.20;;;;;;4951573;28;20043;-75
2021/05/14 01:23:45;;;;;;;9.38;5.68;;;14.30;97.30;;;;;;4952523;28;20027;-75
2021/05/14 01:26:16;;;;;;;11.75;6.10;;;14.40;97.10;;;;;;4951669;28;20035;-75
2021/05/14 01:28:43;;;;;;;10.52;5.65;;;14.50;97.10;;;;;;4967179;28;20544;-75
2021/05/14 01:31:09;;;;;;;8.48;5.32;;;14.40;97.00;;;;;;4955500;28;20118;-74
2021/05/14 01:33:36;;;;;;;12.27;5.88;;;14.50;97.10;;;;;;4955247;28;20032;-76
2021/05/14 01:36:03;;;;;;;10.95;6.93;;;14.50;97.00;;;;;;4990304;28;20030;-74
2021/05/14 01:38:30;;;;;;;12.32;6.00;;;14.60;96.90;;;;;;4995318;28;20015;-75
2021/05/14 01:40:55;;;;;;;10.48;5.32;;;14.50;97.00;;;;;;4993448;28;20029;-77
2021/05/14 01:43:21;;;;;;;9.20;5.40;;;14.40;97.10;;;;;;4993509;28;20034;-76
2021/05/14 01:45:47;;;;;;;9.55;5.22;;;14.40;97.20;;;;;;4993506;28;20074;-76
2021/05/14 01:48:13;;;;;;;9.18;5.88;;;14.40;97.20;;;;;;4993692;28;20035;-74
2021/05/14 01:50:40;;;;;;;11.45;6.20;;;14.40;97.10;;;;;;4995298;28;20421;-76
2021/05/14 01:53:05;;;;;;;9.40;5.88;;;14.40;97.20;;;;;;4993384;28;20030;-76
2021/05/14 01:55:31;;;;;;;7.97;5.18;;;14.40;97.10;;;;;;4993437;28;20034;-76
2021/05/14 01:57:57;;;;;;;11.75;5.63;;;14.40;97.30;;;;;;4993407;28;20038;-76
2021/05/14 02:00:22;;;;;;;10.88;5.80;;;14.40;97.40;;;;;;4993604;28;20039;-76
2021/05/14 02:02:48;;;;;;;9.60;6.05;;;14.20;97.40;;;;;;4994881;28;20547;-75
2021/05/14 02:05:14;;;;;;;10.65;6.38;;;14.20;97.60;;;;;;4993348;28;20405;-75
2021/05/14 02:07:40;;;;;;;9.90;6.00;;;14.20;97.50;;;;;;4992489;28;20052;-75
2021/05/14 02:10:06;;;;;;;9.73;5.85;;;14.20;97.50;;;;;;4993502;28;20066;-75
2021/05/14 02:12:32;;;;;;;9.15;6.07;;;14.30;97.50;;;;;;4993213;28;20038;-76
2021/05/14 02:14:58;;;;;;;10.27;6.50;;;14.20;97.50;;;;;;4993053;28;20249;-75
2021/05/14 02:17:23;;;;;;;11.50;6.13;;;14.20;97.60;;;;;;4994631;28;20037;-75
2021/05/14 02:19:49;;;;;;;11.45;6.20;;;14.20;97.60;;;;;;4991767;28;20133;-75
2021/05/14 02:22:15;;;;;;;9.52;6.32;;;14.20;97.70;;;;;;4992993;28;20048;-74
2021/05/14 02:24:41;;;;;;;10.98;6.18;;;14.00;97.80;;;;;;4992992;28;20070;-75
2021/05/14 02:27:07;;;;;;;9.23;6.35;;;14.10;97.70;;;;;;4992937;28;20061;-75
2021/05/14 02:29:35;;;;;;;12.98;6.57;;;14.00;97.70;;;;;;4994647;28;20046;-75
2021/05/14 02:32:05;;;;;;;9.02;5.72;;;14.10;97.70;;;;;;4992742;28;20049;-76
2021/05/14 02:34:31;;;;;;;15.55;7.15;;;14.00;97.90;;;;;;4992999;28;20070;-75
2021/05/14 02:36:57;;;;;;;12.68;6.57;;;13.90;97.90;;;;;;4992947;28;20030;-75
2021/05/14 02:39:23;;;;;;;9.40;5.50;;;14.00;97.80;;;;;;4993085;28;20041;-75
2021/05/14 02:41:49;;;;;;;15.50;7.28;;;13.80;98.20;;;;;;4992710;28;20400;-75
2021/05/14 02:44:14;;;;;;;13.18;7.47;;;13.70;98.10;;;;;;4992803;28;20112;-76
2021/05/14 02:46:42;;;;;;;15.00;7.90;;;13.70;98.30;;;;;;4992762;28;20069;-75
2021/05/14 02:49:09;;;;;;;13.63;6.95;;;13.60;98.40;;;;;;4992548;28;20030;-75
2021/05/14 02:51:34;;;;;;;13.60;8.05;;;13.60;98.50;;;;;;4992625;28;20042;-76
2021/05/14 02:54:00;;;;;;;15.13;8.13;;;13.60;98.50;;;;;;4992571;28;20030;-76
2021/05/14 02:56:28;;;;;;;14.32;8.32;;;13.70;98.50;;;;;;4994265;28;20050;-75
2021/05/14 02:58:54;;;;;;;18.13;9.13;;;13.90;98.10;;;;;;4992615;28;20042;-76
2021/05/14 03:01:20;;;;;;;15.70;9.20;;;13.80;98.20;;;;;;4991144;28;20100;-75
2021/05/14 03:03:45;;;;;;;15.75;9.55;;;13.70;98.10;;;;;;4992113;28;20505;-76
2021/05/14 03:06:11;;;;;;;12.98;8.77;;;13.70;98.30;;;;;;4992340;28;20638;-74
2021/05/14 03:08:37;;;;;;;16.38;8.80;;;13.70;98.20;;;;;;4993574;28;20180;-73
2021/05/14 03:11:03;;;;;;;16.38;9.27;;;13.70;98.20;;;;;;4992055;28;20035;-75
2021/05/14 03:13:29;;;;;;;14.13;8.55;;;13.80;98.20;;;;;;4992098;28;20038;-74
2021/05/14 03:15:54;;;;;;;14.07;8.85;;;13.90;98.10;;;;;;4992216;28;20448;-74
2021/05/14 03:18:20;;;;;;;19.80;10.35;;;14.00;98.00;;;;;;4992023;28;20041;-74
2021/05/14 03:20:45;;;;;;;14.32;9.45;;;14.00;98.10;;;;;;4993400;28;20022;-74
2021/05/14 03:23:11;;;;;;;18.05;10.98;;;14.00;98.00;;;;;;4992125;28;20038;-75
2021/05/14 03:25:37;;;;;;;21.23;11.45;;;13.80;98.00;;;;;;4991784;28;20464;-75
2021/05/14 03:28:03;;;;;;;15.27;10.43;;;13.70;98.20;;;;;;4991008;28;20460;-76
2021/05/14 03:30:28;;;;;;;19.15;11.75;;;13.80;98.20;;;;;;4991552;28;20069;-74
2021/05/14 03:32:54;;;;;;;18.05;12.20;;;13.90;98.10;;;;;;4992069;28;20062;-74
2021/05/14 03:35:20;;;;;;;22.30;12.57;;;13.90;98.10;;;;;;4993307;28;20015;-73
2021/05/14 03:37:45;;;;;;;22.15;13.40;;;13.90;97.90;;;;;;4991446;28;20042;-74
2021/05/14 03:40:19;;;;;;;21.55;13.68;;;13.90;98.00;;;;;;4991507;28;20043;-74
2021/05/14 03:42:45;;;;;;;22.83;14.43;;;13.80;98.00;;;;;;4991429;28;20117;-74
2021/05/14 03:45:11;;;;;;;24.85;13.93;;;13.80;98.10;;;;;;4991850;28;20117;-75
2021/05/14 03:47:37;;;;;;;26.63;15.82;;;13.80;98.00;;;;;;4993047;28;20037;-76
2021/05/14 03:50:04;;;;;;;25.13;15.93;;;13.80;97.90;;;;;;4991611;28;20042;-77
2021/05/14 03:52:32;;;;;;;25.73;16.40;;;13.80;97.90;;;;;;4990225;28;20049;-75
2021/05/14 03:54:58;;;;;;;;;;;13.90;98.00;;;;;;4991691;28;20053;-75
2021/05/14 03:57:23;;;;;;;23.83;16.00;;;13.90;97.90;;;;;;4991532;28;20276;-74
2021/05/14 03:59:49;;;;;;;33.03;16.33;;;13.90;97.90;;;;;;4992741;28;20401;-74
2021/05/14 04:02:15;;;;;;;28.42;18.83;;;13.80;98.00;;;;;;4990811;28;20045;-75
2021/05/14 04:04:40;;;;;;;35.10;20.15;;;13.50;98.20;;;;;;4991042;28;20034;-74
2021/05/14 04:07:06;;;;;;;30.00;18.75;;;13.50;98.30;;;;;;4991161;28;20554;-74
2021/05/14 04:09:35;;;;;;;32.78;19.67;;;13.70;98.20;;;;;;4990987;28;20129;-73
2021/05/14 04:14:28;;;;;;;37.53;20.90;;;13.70;98.00;;;;;;4990818;28;20019;-74
2021/05/14 04:15:01;;;;;;;38.03;21.52;;;13.60;98.20;;;;;;4990553;28;20322;-74
2021/05/14 04:17:26;;;;;;;37.05;22.10;;;13.80;98.20;;;;;;4992314;28;20034;-75
2021/05/14 04:19:52;;;;;;;36.47;21.30;;;13.70;98.10;;;;;;4990840;28;20108;-74
2021/05/14 04:22:18;;;;;;;38.78;22.45;;;13.80;98.00;;;;;;4990672;28;20038;-75
2021/05/14 04:24:43;;;;;;;50.30;25.70;;;13.70;98.00;;;;;;4990373;28;20061;-75
2021/05/14 04:27:10;;;;;;;48.55;24.30;;;13.60;98.10;;;;;;4990858;28;20093;-75
2021/05/14 04:29:37;;;;;;;52.63;23.90;;;13.60;98.00;;;;;;4991779;28;20068;-75
2021/05/14 04:32:02;;;;;;;41.85;25.23;;;13.70;98.10;;;;;;4990740;28;20512;-74
2021/05/14 04:34:28;;;;;;;44.05;24.75;;;13.70;98.00;;;;;;4990686;28;20185;-75
2021/05/14 04:36:54;;;;;;;43.00;24.48;;;13.70;98.00;;;;;;4990541;28;20371;-75
2021/05/14 04:39:19;;;;;;;45.00;25.00;;;13.50;98.10;;;;;;4990435;28;20038;-75
2021/05/14 04:41:45;;;;;;;44.10;25.88;;;13.50;98.20;;;;;;4992007;28;20026;-75
2021/05/14 04:44:11;;;;;;;51.08;27.90;;;13.60;98.10;;;;;;4990263;28;20053;-75
2021/05/14 04:46:36;;;;;;;54.13;29.17;;;13.60;98.10;;;;;;4990231;28;20117;-75
2021/05/14 04:49:02;;;;;;;49.50;27.38;;;13.60;98.10;;;;;;4990452;28;20081;-76
2021/05/14 04:51:28;;;;;;;53.80;28.55;;;13.70;98.00;;;;;;4990275;28;20046;-75
2021/05/14 04:53:54;;;;;;;51.90;29.25;;;13.70;98.00;;;;;;4990431;28;20031;-75
2021/05/14 04:56:20;;;;;;;55.95;29.45;;;13.70;98.00;;;;;;4991611;28;20050;-78
2021/05/14 04:58:46;;;;;;;58.10;29.88;;;13.70;98.00;;;;;;4989694;28;20092;-76
2021/05/14 05:01:16;;;;;;;50.22;29.45;;;13.50;98.10;;;;;;4990093;28;20046;-75
2021/05/14 05:03:54;;;;;;;61.58;30.48;;;13.50;98.10;;;;;;5001429;28;20421;-75
2021/05/14 05:06:21;;;;;;;71.30;31.67;;;13.60;98.10;;;;;;4973130;28;20085;-76
2021/05/14 05:08:47;;;;;;;60.25;31.08;;;13.70;98.10;;;;;;5007083;28;20121;-76
2021/05/14 05:11:14;;;;;;;61.95;32.00;;;13.60;98.10;;;;;;5005529;28;20388;-75
2021/05/14 05:13:39;;;;;;;67.78;31.98;;;13.20;98.60;;;;;;4990085;28;20114;-76
2021/05/14 05:16:06;;;;;;;59.00;29.17;;;13.10;98.90;;;;;;4989895;28;20126;-75
2021/05/14 05:18:32;;;;;;;53.17;27.95;;;13.30;98.70;;;;;;4989917;28;20058;-74
2021/05/14 05:20:57;;;;;;;57.83;31.15;;;13.30;98.60;;;;;;4989756;28;20064;-75
2021/05/14 05:23:23;;;;;;;61.47;31.05;;;13.30;98.60;;;;;;4991388;28;20100;-75
2021/05/14 05:25:49;;;;;;;65.30;31.52;;;13.20;98.60;;;;;;4989651;28;20372;-76
2021/05/14 05:28:21;;;;;;;54.58;28.92;;;13.30;98.60;;;;;;4989365;28;20046;-76
2021/05/14 05:30:46;;;;;;;60.30;30.63;;;13.40;98.40;;;;;;4989584;28;20054;-75
2021/05/14 05:33:12;;;;;;;59.78;30.08;;;13.40;98.40;;;;;;4989332;28;20034;-75
2021/05/14 05:35:37;;;;;;;56.50;29.17;;;13.50;98.60;;;;;;4991165;28;20475;-75
2021/05/14 05:38:13;;;;;;;61.58;30.48;;;13.40;98.30;;;;;;4989562;28;20126;-75
2021/05/14 05:40:38;;;;;;;56.78;30.00;;;13.50;98.30;;;;;;4989705;28;20427;-74
2021/05/14 05:43:04;;;;;;;64.75;30.17;;;13.60;98.20;;;;;;4989605;28;20037;-77
2021/05/14 05:45:29;;;;;;;62.35;30.13;;;13.60;98.10;;;;;;4988605;28;20053;-77
2021/05/14 05:47:55;;;;;;;59.65;28.77;;;13.50;98.00;;;;;;4990367;28;20037;-86
2021/05/14 05:50:20;;;;;;;56.92;28.38;;;13.50;98.10;;;;;;4995838;28;20031;-91
2021/05/14 05:52:46;;;;;;;60.10;30.48;;;13.50;97.90;;;;;;4995029;28;20089;-81
2021/05/14 05:55:12;;;;;;;60.10;29.65;;;13.30;97.90;;;;;;4991572;28;20065;-70
2021/05/14 05:57:37;;;;;;;59.10;28.67;;;13.40;98.20;;;;;;4992272;28;20092;-81
2021/05/14 06:00:04;;;;;;;58.50;29.17;;;13.50;98.00;;;;;;4992253;28;20030;-82
2021/05/14 06:02:30;;;;;;;65.60;30.35;;;13.60;97.80;;;;;;4993116;28;20114;-81
2021/05/14 06:04:56;;;;;;;53.42;27.30;;;13.50;97.50;;;;;;4991596;28;20464;-80
2021/05/14 06:07:21;;;;;;;56.50;28.98;;;13.60;97.30;;;;;;4991491;28;20047;-79
2021/05/14 06:09:47;;;;;;;54.97;28.13;;;13.50;97.10;;;;;;4992695;28;20034;-79
2021/05/14 06:12:12;;;;;;;54.75;27.77;;;13.30;97.00;;;;;;4991251;28;20115;-76
2021/05/14 06:14:38;;;;;;;59.15;29.73;;;13.20;97.50;;;;;;4994214;28;20026;-81
2021/05/14 06:17:11;;;;;;;58.58;28.45;;;13.30;97.40;;;;;;4997119;28;20148;-82
2021/05/14 06:19:43;;;;;;;54.17;28.02;;;13.30;97.40;;;;;;4980099;28;20058;-78
2021/05/14 06:22:10;;;;;;;56.10;29.95;;;13.40;97.10;;;;;;4958810;28;20058;-90
2021/05/14 06:24:35;;;;;;;51.30;26.23;;;13.50;96.70;;;;;;4957421;28;20044;-89
2021/05/14 06:27:01;;;;;;;51.40;27.08;;;13.50;96.70;;;;;;4946398;28;20059;-92
2021/05/14 06:29:26;;;;;;;53.00;28.05;;;13.60;96.50;;;;;;4947991;29;20070;-96
2021/05/14 06:31:53;;;;;;;51.45;28.15;;;13.40;96.70;;;;;;4959736;28;20051;-88
2021/05/14 06:34:18;;;;;;;52.88;27.23;;;13.60;96.80;;;;;;4961298;28;20043;-90
2021/05/14 06:36:44;;;;;;;52.33;27.95;;;13.60;96.70;;;;;;4963414;28;20053;-88
2021/05/14 06:39:09;;;;;;;50.35;26.65;;;13.70;96.80;;;;;;4959210;28;20016;-88
2021/05/14 06:41:35;;;;;;;53.10;28.25;;;13.70;96.70;;;;;;4940752;29;20027;-80
2021/05/14 06:44:01;;;;;;;51.60;25.98;;;13.80;96.70;;;;;;4953783;28;20058;-84
2021/05/14 06:46:26;;;;;;;47.60;25.95;;;13.70;96.80;;;;;;4942732;28;20089;-83
2021/05/14 06:48:52;;;;;;;49.65;26.23;;;13.60;96.60;;;;;;4943006;28;20041;-84
2021/05/14 06:51:18;;;;;;;52.70;27.30;;;13.60;96.60;;;;;;4953407;28;20058;-86
2021/05/14 06:53:44;;;;;;;57.65;26.70;;;13.70;96.50;;;;;;4956302;28;20122;-80
2021/05/14 06:56:09;;;;;;;51.22;25.92;;;13.70;96.30;;;;;;4954812;28;20067;-91
2021/05/14 06:58:35;;;;;;;50.55;25.70;;;14.00;96.50;;;;;;4945060;28;20087;-92
2021/05/14 07:01:01;;;;;;;51.00;26.05;;;14.10;96.30;;;;;;4957513;28;20035;-89
2021/05/14 07:03:26;;;;;;;44.08;24.25;;;14.10;96.10;;;;;;4942452;28;20421;-89
2021/05/14 07:05:52;;;;;;;47.85;24.58;;;13.90;95.90;;;;;;4958831;29;20036;-92
2021/05/14 07:08:18;;;;;;;47.58;23.92;;;13.80;96.10;;;;;;4959168;28;20027;-93
2021/05/14 07:10:51;;;;;;;45.25;24.65;;;14.00;96.00;;;;;;4945485;28;20070;-91
2021/05/14 07:13:17;;;;;;;42.30;23.73;;;14.20;95.80;;;;;;4951634;28;20046;-91
2021/05/14 07:15:43;;;;;;;38.55;22.55;;;14.10;95.70;;;;;;4959470;28;20031;-90
2021/05/14 07:18:09;;;;;;;45.63;23.67;;;14.20;95.50;;;;;;4973678;28;20381;-89
2021/05/14 07:20:36;;;;;;;41.15;22.80;;;14.30;95.50;;;;;;4957369;29;20027;-83
2021/05/14 07:23:04;;;;;;;37.58;21.27;;;14.40;95.40;;;;;;4958816;28;20375;-94
2021/05/14 07:25:38;;;;;;;32.38;18.95;;;14.40;95.50;;;;;;4973566;28;20054;-91
2021/05/14 07:28:03;;;;;;;29.77;18.35;;;14.50;94.80;;;;;;4958182;28;20067;-90
2021/05/14 07:30:29;;;;;;;27.13;16.33;;;14.50;94.40;;;;;;4955024;28;20409;-84
2021/05/14 07:32:57;;;;;;;28.90;16.88;;;14.60;94.20;;;;;;4956231;28;20105;-87
2021/05/14 07:35:25;;;;;;;31.45;16.45;;;14.50;93.90;;;;;;4940147;29;20020;-90
2021/05/14 07:37:51;;;;;;;27.27;16.90;;;14.60;93.80;;;;;;4955519;28;20103;-89
2021/05/14 07:40:17;;;;;;;31.40;17.77;;;14.60;93.40;;;;;;4957819;28;20039;-90
2021/05/14 07:42:42;;;;;;;24.33;15.15;;;14.80;93.50;;;;;;4957491;28;20031;-90
2021/05/14 07:45:08;;;;;;;25.45;15.32;;;14.80;93.20;;;;;;4973970;28;20461;-89
2021/05/14 07:47:34;;;;;;;29.48;16.55;;;15.00;93.00;;;;;;4973844;28;20467;-89
2021/05/14 07:50:03;;;;;;;25.88;16.35;;;15.10;92.70;;;;;;4975392;28;20043;-93
2021/05/14 07:52:41;;;;;;;35.10;17.20;;;15.10;92.70;;;;;;4976277;28;20043;-92
2021/05/14 07:55:07;;;;;;;27.77;16.33;;;15.30;92.70;;;;;;4972450;28;20469;-91
2021/05/14 07:57:33;;;;;;;27.35;16.60;;;15.40;92.80;;;;;;4976884;28;20102;-94
2021/05/14 07:59:59;;;;;;;31.13;18.05;;;15.40;92.40;;;;;;4975281;28;20456;-93
2021/05/14 08:02:30;;;;;;;30.35;16.00;;;15.60;92.50;;;;;;4976927;28;20122;-93
2021/05/14 08:04:56;;;;;;;28.40;17.52;;;15.50;92.40;;;;;;4971327;28;20098;-82
2021/05/14 08:07:21;;;;;;;29.58;16.25;;;15.70;92.30;;;;;;4958636;28;20039;-87
2021/05/14 08:09:47;;;;;;;25.60;17.23;;;15.70;91.90;;;;;;4971142;28;20042;-83
2021/05/14 08:12:13;;;;;;;29.80;16.85;;;15.80;92.00;;;;;;4956581;28;20039;-90
2021/05/14 08:14:50;;;;;;;24.88;14.77;;;15.70;91.90;;;;;;4958323;28;20023;-92
2021/05/14 08:17:15;;;;;;;27.08;14.98;;;15.80;91.80;;;;;;4954599;28;20043;-88
2021/05/14 08:19:42;;;;;;;23.92;14.15;;;15.80;91.70;;;;;;4955826;28;20089;-85
2021/05/14 08:22:07;;;;;;;22.55;13.85;;;15.80;91.60;;;;;;4967591;28;20054;-79
2021/05/14 08:24:33;;;;;;;21.67;13.10;;;16.00;91.50;;;;;;4952249;28;20043;-80
2021/05/14 08:26:59;;;;;;;22.98;14.57;;;16.20;91.20;;;;;;4952127;28;20393;-79
2021/05/14 08:29:25;;;;;;;20.48;13.45;;;16.10;91.20;;;;;;4953408;29;20623;-80
2021/05/14 08:31:51;;;;;;;18.77;12.15;;;16.20;91.30;;;;;;4936529;28;20399;-75
2021/05/14 08:34:17;;;;;;;19.42;12.82;;;16.40;91.10;;;;;;4943526;28;20039;-80
2021/05/14 08:36:43;;;;;;;19.63;12.23;;;16.50;91.00;;;;;;4967070;28;20038;-81
2021/05/14 08:39:08;;;;;;;16.98;11.00;;;16.60;90.80;;;;;;4952262;28;20024;-80
2021/05/14 08:41:35;;;;;;;20.13;12.13;;;16.30;90.40;;;;;;4952291;29;20325;-78
2021/05/14 08:44:02;;;;;;;17.45;12.40;;;16.30;90.80;;;;;;4951886;28;20062;-77
2021/05/14 08:46:29;;;;;;;16.73;11.10;;;16.30;90.70;;;;;;4960365;28;20035;-80
2021/05/14 08:48:56;;;;;;;16.00;12.43;;;16.30;91.00;;;;;;4951692;28;20071;-79
2021/05/14 08:51:27;;;;;;;18.02;11.63;;;16.30;91.00;;;;;;4948039;28;20504;-80
2021/05/14 08:53:56;;;;;;;14.52;11.05;;;16.40;90.80;;;;;;4934512;29;20024;-80
2021/05/14 08:56:22;;;;;;;17.83;13.05;;;16.50;90.60;;;;;;4952433;28;20146;-79
2021/05/14 08:58:47;;;;;;;14.90;11.38;;;16.30;90.60;;;;;;4936565;28;20142;-77
2021/05/14 09:01:13;;;;;;;16.45;10.82;;;16.30;90.70;;;;;;4943280;28;20089;-81
2021/05/14 09:04:02;;;;;;;16.00;10.60;;;16.30;90.40;;;;;;4953493;28;20047;-81
2021/05/14 09:06:30;;;;;;;17.27;10.55;;;16.20;90.70;;;;;;4966654;28;20067;-80
2021/05/14 09:09:01;;;;;;;19.23;11.13;;;16.30;90.40;;;;;;4951789;28;20038;-80
2021/05/14 09:11:45;;;;;;;17.98;10.50;;;16.30;90.10;;;;;;4953694;29;20019;-80
2021/05/14 09:14:38;;;;;;;15.85;11.70;;;16.50;90.30;;;;;;4951263;28;20062;-83
2021/05/14 09:17:18;;;;;;;16.92;11.48;;;16.30;90.40;;;;;;4951422;28;20105;-79
2021/05/14 09:19:46;;;;;;;14.23;11.18;;;16.60;90.40;;;;;;4951384;28;20031;-81
2021/05/14 09:22:21;;;;;;;;;;;16.40;90.20;;;;;;4951508;28;20311;-81
2021/05/14 09:24:58;;;;;;;13.55;10.15;;;16.80;90.20;;;;;;4944359;28;20017;-80
2021/05/14 09:27:27;;;;;;;18.07;11.73;;;16.90;89.30;;;;;;4935234;28;20059;-80
2021/05/14 09:29:54;;;;;;;19.17;11.48;;;16.70;90.10;;;;;;4952615;28;20130;-80
2021/05/14 09:32:31;;;;;;;16.25;12.25;;;17.20;89.70;;;;;;4968275;28;20255;-75
2021/05/14 09:34:59;;;;;;;18.50;13.07;;;17.50;88.50;;;;;;4935277;28;20070;-80
2021/05/14 09:37:28;;;;;;;16.48;12.20;;;17.60;88.90;;;;;;4944591;28;20090;-81
2021/05/14 09:40:18;;;;;;;14.73;10.73;;;17.90;87.60;;;;;;4966263;28;20050;-83
2021/05/14 09:42:45;;;;;;;16.70;10.73;;;18.10;86.70;;;;;;4955947;28;20077;-87
2021/05/14 09:45:25;;;;;;;16.88;11.35;;;18.00;86.80;;;;;;4925518;28;20059;-79
2021/05/14 09:48:26;;;;;;;14.20;10.05;;;18.10;87.30;;;;;;4940301;29;20123;-80
2021/05/14 09:50:52;;;;;;;16.55;9.80;;;18.20;85.30;;;;;;4954264;28;20114;-85
2021/05/14 09:53:20;;;;;;;15.75;9.77;;;18.20;84.50;;;;;;4957847;28;20039;-89
2021/05/14 09:55:50;;;;;;;16.52;9.48;;;18.20;85.10;;;;;;4956543;28;20031;-88
2021/05/14 09:58:27;;;;;;;13.88;9.77;;;18.70;82.60;;;;;;4945003;28;20052;-84
2021/05/14 10:00:52;;;;;;;15.55;10.15;;;18.40;82.60;;;;;;4943434;28;20031;-86
2021/05/14 10:03:23;;;;;;;19.10;11.38;;;18.80;82.40;;;;;;4956210;28;20044;-86
2021/05/14 10:05:50;;;;;;;16.13;11.20;;;18.50;81.80;;;;;;4958191;28;20027;-86
2021/05/14 10:08:22;;;;;;;16.08;10.95;;;18.40;81.90;;;;;;4971849;28;20042;-87
2021/05/14 10:10:48;;;;;;;21.23;12.73;;;18.50;81.20;;;;;;4955662;28;20031;-79
2021/05/14 10:13:13;;;;;;;27.38;14.75;;;18.90;81.10;;;;;;4953491;28;20090;-80
2021/05/14 10:15:40;;;;;;;18.85;13.55;;;19.10;81.00;;;;;;4954569;28;20433;-82
2021/05/14 10:18:13;;;;;;;21.10;13.85;;;19.10;80.70;;;;;;4954502;28;20038;-82
2021/05/14 10:20:40;;;;;;;20.45;14.48;;;19.20;80.80;;;;;;4956408;29;20086;-86
2021/05/14 10:23:06;;;;;;;20.10;13.05;;;19.00;79.50;;;;;;4938176;28;20161;-83
2021/05/14 10:25:37;;;;;;;18.52;13.25;;;19.00;79.00;;;;;;4948739;28;20094;-85
2021/05/14 10:28:53;;;;;;;20.00;12.68;;;19.10;78.80;;;;;;4955348;28;20047;-82
2021/05/14 10:31:21;;;;;;;18.95;11.57;;;19.40;77.90;;;;;;4953238;28;20062;-84
2021/05/14 10:33:47;;;;;;;;;;;19.80;76.50;;;;;;4954983;28;20043;-81
2021/05/14 10:36:22;;;;;;;15.07;10.60;;;19.60;76.60;;;;;;4969886;28;20198;-79
2021/05/14 10:39:06;;;;;;;19.45;11.15;;;19.20;75.80;;;;;;4956056;28;20019;-80
2021/05/14 10:41:32;;;;;;;16.05;11.48;;;19.20;74.80;;;;;;4953646;29;20122;-82
2021/05/14 10:44:01;;;;;;;14.73;10.13;;;19.50;76.50;;;;;;4952867;28;20114;-77
2021/05/14 10:46:28;;;;;;;17.67;9.88;;;19.40;74.80;;;;;;4968942;28;20422;-81
2021/05/14 10:49:01;;;;;;;15.45;10.38;;;19.30;75.70;;;;;;4954538;28;20039;-87
2021/05/14 10:51:45;;;;;;;14.32;10.75;;;19.00;76.60;;;;;;4957266;28;20043;-83
2021/05/14 10:54:43;;;;;;;16.63;9.63;;;19.10;76.40;;;;;;4952107;28;20053;-81
2021/05/14 10:57:13;;;;;;;16.55;10.80;;;19.10;76.90;;;;;;4936537;28;20113;-81
2021/05/14 10:59:39;;;;;;;14.88;10.20;;;18.90;78.00;;;;;;4954631;28;20083;-83
2021/05/14 11:02:25;;;;;;;17.35;11.18;;;19.00;79.00;;;;;;4953147;28;20053;-82
2021/05/14 11:04:51;;;;;;;16.05;10.60;;;19.00;78.70;;;;;;4953755;28;20169;-81
2021/05/14 11:07:36;;;;;;;15.40;11.00;;;19.00;78.40;;;;;;4953797;28;20083;-78
2021/05/14 11:10:25;;;;;;;19.30;12.82;;;18.90;79.60;;;;;;4953573;28;20035;-82
2021/05/14 11:12:50;;;;;;;28.75;12.90;;;18.50;80.70;;;;;;4956904;28;20155;-86
2021/05/14 11:15:19;;;;;;;16.75;11.02;;;18.40;80.60;;;;;;4954030;28;20108;-87
2021/05/14 11:18:07;;;;;;;14.52;10.50;;;18.60;80.70;;;;;;4955353;29;20171;-84
2021/05/14 11:20:43;;;;;;;19.23;11.40;;;18.60;79.80;;;;;;4949906;29;20465;-84
2021/05/14 11:23:30;;;;;;;16.88;10.57;;;18.40;80.20;;;;;;4934473;28;20343;-81
2021/05/14 11:25:56;;;;;;;15.75;10.38;;;18.40;81.20;;;;;;4965449;28;20170;-82
2021/05/14 11:28:38;;;;;;;13.75;9.48;;;18.60;81.20;;;;;;4941732;28;20093;-83
2021/05/14 11:31:04;;;;;;;13.13;9.38;;;18.40;77.10;;;;;;4943701;28;20062;-80
2021/05/14 11:33:29;;;;;;;14.05;8.25;;;18.50;77.30;;;;;;4948502;29;20032;-79
2021/05/14 11:35:55;;;;;;;14.13;9.60;;;18.80;75.30;;;;;;4934994;28;20052;-83
2021/05/14 11:38:21;;;;;;;13.73;8.77;;;18.50;75.20;;;;;;4955205;28;20082;-84
2021/05/14 11:40:49;;;;;;;16.00;8.63;;;18.60;76.20;;;;;;4953487;28;20551;-85
2021/05/14 11:43:15;;;;;;;14.90;9.48;;;18.30;77.80;;;;;;4956257;28;20098;-85
2021/05/14 11:45:45;;;;;;;12.88;9.63;;;18.50;76.10;;;;;;4952681;28;20039;-84
2021/05/14 11:48:12;;;;;;;14.65;10.57;;;18.60;77.20;;;;;;4952803;28;20082;-82
2021/05/14 11:50:49;;;;;;;17.42;10.90;;;18.70;78.60;;;;;;4952828;28;20032;-86
2021/05/14 11:53:17;;;;;;;16.90;11.00;;;18.90;79.60;;;;;;4968330;28;20062;-83
2021/05/14 11:55:46;;;;;;;17.23;11.02;;;19.00;77.10;;;;;;4939147;28;20036;-83
2021/05/14 11:58:11;;;;;;;16.70;11.55;;;19.00;78.40;;;;;;4958787;28;20062;-82
2021/05/14 12:00:38;;;;;;;19.00;12.25;;;18.60;78.70;;;;;;4953028;28;20043;-85
2021/05/14 12:03:11;;;;;;;19.17;12.27;;;18.50;79.50;;;;;;4951072;28;20038;-84
2021/05/14 12:05:39;;;;;;;16.15;9.85;;;18.40;80.30;;;;;;4934732;29;20050;-87
2021/05/14 12:08:22;;;;;;;14.40;8.98;;;18.80;80.50;;;;;;4950421;28;20052;-83
2021/05/14 12:10:55;;;;;;;19.15;9.85;;;19.00;78.00;;;;;;4951284;29;20354;-81
2021/05/14 12:13:26;;;;;;;16.48;9.68;;;19.00;78.10;;;;;;4951449;28;20043;-87
2021/05/14 12:16:15;;;;;;;18.92;10.63;;;18.70;79.30;;;;;;4952148;28;20497;-88
2021/05/14 12:18:46;;;;;;;15.65;9.05;;;18.30;79.40;;;;;;4953685;28;20139;-87
2021/05/14 12:21:25;;;;;;;20.17;10.57;;;18.00;79.80;;;;;;4965924;28;20030;-82
2021/05/14 12:23:55;;;;;;;14.75;9.25;;;17.90;80.90;;;;;;4949743;28;20028;-83
2021/05/14 12:26:21;;;;;;;17.35;10.90;;;18.00;81.90;;;;;;4952863;28;20063;-85
2021/05/14 12:28:48;;;;;;;17.88;10.80;;;17.80;83.10;;;;;;4967422;28;20114;-84
2021/05/14 12:31:27;;;;;;;19.67;10.43;;;18.00;82.90;;;;;;4952475;28;20084;-88
2021/05/14 12:34:10;;;;;;;21.00;10.50;;;18.10;82.70;;;;;;4967162;28;20050;-84
2021/05/14 12:36:41;;;;;;;17.67;10.32;;;17.80;82.40;;;;;;4966989;28;20065;-85
2021/05/14 12:39:12;;;;;;;18.27;11.50;;;17.70;82.60;;;;;;4952356;28;20020;-83